sensor_id;sensor_type;location;lat;lon;timestamp;P1;durP1;ratioP1;P2;durP2;ratioP2
49860;SDS011;35761;48.826;9.238;2024-03-22T00:00:02;18.45;;;11.25;;
49860;SDS011;35761;48.826;9.238;2024-03-22T00:02:37;19.25;;;11.57;;
49860;SDS011;35761;48.826;9.238;2024-03-22T00:05:03;19.55;;;10.90;;
49860;SDS011;35761;48.826;9.238;2024-03-22T00:07:29;19.33;;;10.65;;
49860;SDS011;35761;48.826;9.238;2024-03-22T00:09:54;21.95;;;11.32;;
49860;SDS011;35761;48.826;9.238;2024-03-22T00:12:20;21.02;;;11.20;;
49860;SDS011;35761;48.826;9.238;2024-03-22T00:14:45;26.15;;;12.35;;
49860;SDS011;35761;48.826;9.238;2024-03-22T00:17:11;23.65;;;12.93;;
49860;SDS011;35761;48.826;9.238;2024-03-22T00:19:36;19.00;;;12.73;;
49860;SDS011;35761;48.826;9.238;2024-03-22T00:22:02;22.52;;;12.73;;
49860;SDS011;35761;48.826;9.238;2024-03-22T00:24:27;24.38;;;13.27;;
49860;SDS011;35761;48.826;9.238;2024-03-22T00:26:53;26.48;;;12.68;;
49860;SDS011;35761;48.826;9.238;2024-03-22T00:29:18;25.80;;;13.85;;
49860;SDS011;35761;48.826;9.238;2024-03-22T00:31:44;21.40;;;13.02;;
49860;SDS011;35761;48.826;9.238;2024-03-22T00:34:09;26.92;;;12.90;;
49860;SDS011;35761;48.826;9.238;2024-03-22T00:36:35;23.27;;;13.63;;
49860;SDS011;35761;48.826;9.238;2024-03-22T00:39:00;21.27;;;12.57;;
49860;SDS011;35761;48.826;9.238;2024-03-22T00:41:26;41.28;;;14.32;;
49860;SDS011;35761;48.826;9.238;2024-03-22T00:43:51;27.63;;;14.50;;
49860;SDS011;35761;48.826;9.238;2024-03-22T00:46:17;25.67;;;13.77;;
49860;SDS011;35761;48.826;9.238;2024-03-22T00:48:42;20.20;;;13.32;;
49860;SDS011;35761;48.826;9.238;2024-03-22T00:51:08;21.65;;;13.63;;
49860;SDS011;35761;48.826;9.238;2024-03-22T00:53:33;21.83;;;12.65;;
49860;SDS011;35761;48.826;9.238;2024-03-22T00:55:58;24.38;;;13.85;;
49860;SDS011;35761;48.826;9.238;2024-03-22T00:58:25;22.88;;;12.65;;
49860;SDS011;35761;48.826;9.238;2024-03-22T01:00:54;22.85;;;15.02;;
49860;SDS011;35761;48.826;9.238;2024-03-22T01:03:20;28.10;;;15.02;;
49860;SDS011;35761;48.826;9.238;2024-03-22T01:05:45;23.27;;;13.73;;
49860;SDS011;35761;48.826;9.238;2024-03-22T01:08:11;21.92;;;14.23;;
49860;SDS011;35761;48.826;9.238;2024-03-22T01:10:37;22.27;;;12.90;;
49860;SDS011;35761;48.826;9.238;2024-03-22T01:13:02;24.65;;;13.02;;
49860;SDS011;35761;48.826;9.238;2024-03-22T01:15:28;19.83;;;13.20;;
49860;SDS011;35761;48.826;9.238;2024-03-22T01:17:53;21.27;;;11.80;;
49860;SDS011;35761;48.826;9.238;2024-03-22T01:20:19;23.08;;;12.88;;
49860;SDS011;35761;48.826;9.238;2024-03-22T01:22:45;27.98;;;12.48;;
49860;SDS011;35761;48.826;9.238;2024-03-22T01:25:10;17.52;;;10.60;;
49860;SDS011;35761;48.826;9.238;2024-03-22T01:27:36;23.05;;;11.50;;
49860;SDS011;35761;48.826;9.238;2024-03-22T01:30:02;22.15;;;11.23;;
49860;SDS011;35761;48.826;9.238;2024-03-22T01:32:28;22.52;;;9.43;;
49860;SDS011;35761;48.826;9.238;2024-03-22T01:34:53;14.40;;;8.90;;
49860;SDS011;35761;48.826;9.238;2024-03-22T01:37:19;13.93;;;7.70;;
49860;SDS011;35761;48.826;9.238;2024-03-22T01:39:44;14.93;;;8.18;;
49860;SDS011;35761;48.826;9.238;2024-03-22T01:42:10;16.23;;;8.65;;
49860;SDS011;35761;48.826;9.238;2024-03-22T01:44:35;13.20;;;8.45;;
49860;SDS011;35761;48.826;9.238;2024-03-22T01:47:01;15.93;;;8.70;;
49860;SDS011;35761;48.826;9.238;2024-03-22T01:49:27;14.23;;;8.25;;
49860;SDS011;35761;48.826;9.238;2024-03-22T01:51:53;13.50;;;8.35;;
49860;SDS011;35761;48.826;9.238;2024-03-22T01:54:19;18.50;;;8.38;;
49860;SDS011;35761;48.826;9.238;2024-03-22T01:56:45;12.50;;;7.78;;
49860;SDS011;35761;48.826;9.238;2024-03-22T01:59:11;13.65;;;7.68;;
49860;SDS011;35761;48.826;9.238;2024-03-22T02:01:37;15.10;;;8.48;;
49860;SDS011;35761;48.826;9.238;2024-03-22T02:04:03;13.70;;;7.40;;
49860;SDS011;35761;48.826;9.238;2024-03-22T02:06:28;13.15;;;7.75;;
49860;SDS011;35761;48.826;9.238;2024-03-22T02:08:54;14.25;;;7.60;;
49860;SDS011;35761;48.826;9.238;2024-03-22T02:11:20;12.20;;;7.45;;
49860;SDS011;35761;48.826;9.238;2024-03-22T02:13:46;14.55;;;7.80;;
49860;SDS011;35761;48.826;9.238;2024-03-22T02:16:11;12.93;;;7.10;;
49860;SDS011;35761;48.826;9.238;2024-03-22T02:18:37;11.70;;;7.53;;
49860;SDS011;35761;48.826;9.238;2024-03-22T02:21:02;14.13;;;7.55;;
49860;SDS011;35761;48.826;9.238;2024-03-22T02:23:35;14.23;;;7.72;;
49860;SDS011;35761;48.826;9.238;2024-03-22T02:26:02;13.52;;;7.32;;
49860;SDS011;35761;48.826;9.238;2024-03-22T02:28:28;12.98;;;7.65;;
49860;SDS011;35761;48.826;9.238;2024-03-22T02:30:53;17.23;;;7.70;;
49860;SDS011;35761;48.826;9.238;2024-03-22T02:33:19;13.10;;;7.50;;
49860;SDS011;35761;48.826;9.238;2024-03-22T02:35:48;15.13;;;8.50;;
49860;SDS011;35761;48.826;9.238;2024-03-22T02:38:14;13.88;;;8.20;;
49860;SDS011;35761;48.826;9.238;2024-03-22T02:40:40;13.98;;;8.32;;
49860;SDS011;35761;48.826;9.238;2024-03-22T02:43:05;20.60;;;9.48;;
49860;SDS011;35761;48.826;9.238;2024-03-22T02:45:31;13.50;;;8.60;;
49860;SDS011;35761;48.826;9.238;2024-03-22T02:47:57;17.15;;;9.75;;
49860;SDS011;35761;48.826;9.238;2024-03-22T02:50:23;18.88;;;10.63;;
49860;SDS011;35761;48.826;9.238;2024-03-22T02:52:49;14.38;;;10.38;;
49860;SDS011;35761;48.826;9.238;2024-03-22T02:55:14;17.60;;;11.02;;
49860;SDS011;35761;48.826;9.238;2024-03-22T02:57:40;16.25;;;10.25;;
49860;SDS011;35761;48.826;9.238;2024-03-22T03:00:05;17.48;;;10.65;;
49860;SDS011;35761;48.826;9.238;2024-03-22T03:02:31;17.13;;;10.23;;
49860;SDS011;35761;48.826;9.238;2024-03-22T03:04:57;16.60;;;10.77;;
49860;SDS011;35761;48.826;9.238;2024-03-22T03:07:24;19.90;;;10.88;;
49860;SDS011;35761;48.826;9.238;2024-03-22T03:09:50;22.15;;;11.82;;
49860;SDS011;35761;48.826;9.238;2024-03-22T03:12:15;21.35;;;11.45;;
49860;SDS011;35761;48.826;9.238;2024-03-22T03:14:41;21.15;;;11.60;;
49860;SDS011;35761;48.826;9.238;2024-03-22T03:17:07;20.70;;;12.80;;
49860;SDS011;35761;48.826;9.238;2024-03-22T03:19:32;20.60;;;13.30;;
49860;SDS011;35761;48.826;9.238;2024-03-22T03:21:58;28.88;;;12.52;;
49860;SDS011;35761;48.826;9.238;2024-03-22T03:24:23;21.33;;;13.43;;
49860;SDS011;35761;48.826;9.238;2024-03-22T03:26:48;21.98;;;13.63;;
49860;SDS011;35761;48.826;9.238;2024-03-22T03:29:14;20.05;;;12.25;;
49860;SDS011;35761;48.826;9.238;2024-03-22T03:31:40;24.15;;;13.50;;
49860;SDS011;35761;48.826;9.238;2024-03-22T03:34:05;21.55;;;13.48;;
49860;SDS011;35761;48.826;9.238;2024-03-22T03:36:31;25.00;;;13.18;;
49860;SDS011;35761;48.826;9.238;2024-03-22T03:38:56;22.17;;;14.43;;
49860;SDS011;35761;48.826;9.238;2024-03-22T03:41:22;26.85;;;14.82;;
49860;SDS011;35761;48.826;9.238;2024-03-22T03:43:47;29.25;;;13.32;;
49860;SDS011;35761;48.826;9.238;2024-03-22T03:46:13;26.17;;;13.98;;
49860;SDS011;35761;48.826;9.238;2024-03-22T03:48:38;26.10;;;13.95;;
49860;SDS011;35761;48.826;9.238;2024-03-22T03:51:05;20.67;;;13.02;;
49860;SDS011;35761;48.826;9.238;2024-03-22T03:53:30;23.90;;;13.77;;
49860;SDS011;35761;48.826;9.238;2024-03-22T03:55:56;26.98;;;12.85;;
49860;SDS011;35761;48.826;9.238;2024-03-22T03:58:21;27.73;;;13.30;;
49860;SDS011;35761;48.826;9.238;2024-03-22T04:00:47;21.55;;;13.27;;
49860;SDS011;35761;48.826;9.238;2024-03-22T04:03:12;23.27;;;12.93;;
49860;SDS011;35761;48.826;9.238;2024-03-22T04:05:38;26.63;;;14.25;;
49860;SDS011;35761;48.826;9.238;2024-03-22T04:08:03;20.60;;;13.23;;
49860;SDS011;35761;48.826;9.238;2024-03-22T04:10:29;19.88;;;12.82;;
49860;SDS011;35761;48.826;9.238;2024-03-22T04:12:54;21.02;;;12.75;;
49860;SDS011;35761;48.826;9.238;2024-03-22T04:15:20;23.50;;;13.23;;
49860;SDS011;35761;48.826;9.238;2024-03-22T04:17:45;19.92;;;12.77;;
49860;SDS011;35761;48.826;9.238;2024-03-22T04:20:11;20.88;;;12.63;;
49860;SDS011;35761;48.826;9.238;2024-03-22T04:22:37;20.58;;;11.15;;
49860;SDS011;35761;48.826;9.238;2024-03-22T04:25:02;22.90;;;12.68;;
49860;SDS011;35761;48.826;9.238;2024-03-22T04:27:28;22.38;;;11.95;;
49860;SDS011;35761;48.826;9.238;2024-03-22T04:29:54;25.70;;;11.40;;
49860;SDS011;35761;48.826;9.238;2024-03-22T04:32:19;20.42;;;11.27;;
49860;SDS011;35761;48.826;9.238;2024-03-22T04:34:45;20.40;;;11.52;;
49860;SDS011;35761;48.826;9.238;2024-03-22T04:37:10;19.25;;;12.00;;
49860;SDS011;35761;48.826;9.238;2024-03-22T04:39:39;17.42;;;10.85;;
49860;SDS011;35761;48.826;9.238;2024-03-22T04:42:05;22.10;;;12.02;;
49860;SDS011;35761;48.826;9.238;2024-03-22T04:44:32;19.13;;;11.63;;
49860;SDS011;35761;48.826;9.238;2024-03-22T04:46:57;22.45;;;11.63;;
49860;SDS011;35761;48.826;9.238;2024-03-22T04:49:23;18.00;;;11.93;;
49860;SDS011;35761;48.826;9.238;2024-03-22T04:51:48;17.75;;;11.68;;
49860;SDS011;35761;48.826;9.238;2024-03-22T04:54:14;24.65;;;12.10;;
49860;SDS011;35761;48.826;9.238;2024-03-22T04:56:40;18.00;;;11.70;;
49860;SDS011;35761;48.826;9.238;2024-03-22T04:59:05;18.15;;;10.93;;
49860;SDS011;35761;48.826;9.238;2024-03-22T05:01:31;20.63;;;12.40;;
49860;SDS011;35761;48.826;9.238;2024-03-22T05:03:57;23.25;;;12.00;;
49860;SDS011;35761;48.826;9.238;2024-03-22T05:06:22;16.73;;;11.50;;
49860;SDS011;35761;48.826;9.238;2024-03-22T05:08:48;66.78;;;34.10;;
49860;SDS011;35761;48.826;9.238;2024-03-22T05:11:13;43.88;;;26.98;;
49860;SDS011;35761;48.826;9.238;2024-03-22T05:13:39;21.60;;;12.85;;
49860;SDS011;35761;48.826;9.238;2024-03-22T05:16:06;21.25;;;11.80;;
49860;SDS011;35761;48.826;9.238;2024-03-22T05:18:31;20.85;;;11.20;;
49860;SDS011;35761;48.826;9.238;2024-03-22T05:20:57;18.98;;;10.85;;
49860;SDS011;35761;48.826;9.238;2024-03-22T05:23:23;19.67;;;11.02;;
49860;SDS011;35761;48.826;9.238;2024-03-22T05:25:48;20.35;;;11.65;;
49860;SDS011;35761;48.826;9.238;2024-03-22T05:28:14;19.30;;;11.00;;
49860;SDS011;35761;48.826;9.238;2024-03-22T05:30:39;22.60;;;11.55;;
49860;SDS011;35761;48.826;9.238;2024-03-22T05:33:05;16.23;;;10.63;;
49860;SDS011;35761;48.826;9.238;2024-03-22T05:35:30;20.40;;;10.07;;
49860;SDS011;35761;48.826;9.238;2024-03-22T05:37:56;14.40;;;9.40;;
49860;SDS011;35761;48.826;9.238;2024-03-22T05:40:21;19.23;;;9.90;;
49860;SDS011;35761;48.826;9.238;2024-03-22T05:42:47;17.63;;;8.98;;
49860;SDS011;35761;48.826;9.238;2024-03-22T05:45:12;14.15;;;10.60;;
49860;SDS011;35761;48.826;9.238;2024-03-22T05:47:38;32.83;;;18.27;;
49860;SDS011;35761;48.826;9.238;2024-03-22T05:50:04;24.45;;;14.02;;
49860;SDS011;35761;48.826;9.238;2024-03-22T05:52:32;19.17;;;11.73;;
49860;SDS011;35761;48.826;9.238;2024-03-22T05:54:58;26.70;;;11.27;;
49860;SDS011;35761;48.826;9.238;2024-03-22T05:57:23;21.15;;;11.50;;
49860;SDS011;35761;48.826;9.238;2024-03-22T05:59:49;19.75;;;11.63;;
49860;SDS011;35761;48.826;9.238;2024-03-22T06:02:14;19.13;;;12.70;;
49860;SDS011;35761;48.826;9.238;2024-03-22T06:04:41;19.33;;;11.80;;
49860;SDS011;35761;48.826;9.238;2024-03-22T06:07:06;19.45;;;11.88;;
49860;SDS011;35761;48.826;9.238;2024-03-22T06:09:32;22.67;;;11.52;;
49860;SDS011;35761;48.826;9.238;2024-03-22T06:12:14;15.93;;;10.00;;
49860;SDS011;35761;48.826;9.238;2024-03-22T06:14:40;16.52;;;9.77;;
49860;SDS011;35761;48.826;9.238;2024-03-22T06:17:06;19.13;;;9.55;;
49860;SDS011;35761;48.826;9.238;2024-03-22T06:19:31;19.42;;;10.10;;
49860;SDS011;35761;48.826;9.238;2024-03-22T06:21:57;18.45;;;9.35;;
49860;SDS011;35761;48.826;9.238;2024-03-22T06:24:23;19.00;;;8.80;;
49860;SDS011;35761;48.826;9.238;2024-03-22T06:26:48;47.58;;;22.67;;
49860;SDS011;35761;48.826;9.238;2024-03-22T06:29:15;29.10;;;16.15;;
49860;SDS011;35761;48.826;9.238;2024-03-22T06:31:41;22.88;;;10.27;;
49860;SDS011;35761;48.826;9.238;2024-03-22T06:34:07;23.88;;;9.75;;
49860;SDS011;35761;48.826;9.238;2024-03-22T06:36:33;16.92;;;9.48;;
49860;SDS011;35761;48.826;9.238;2024-03-22T06:38:59;18.67;;;9.85;;
49860;SDS011;35761;48.826;9.238;2024-03-22T06:41:24;23.23;;;9.45;;
49860;SDS011;35761;48.826;9.238;2024-03-22T06:43:51;17.50;;;9.75;;
49860;SDS011;35761;48.826;9.238;2024-03-22T06:46:16;22.77;;;9.93;;
49860;SDS011;35761;48.826;9.238;2024-03-22T06:48:42;19.77;;;10.85;;
49860;SDS011;35761;48.826;9.238;2024-03-22T06:51:07;26.40;;;11.73;;
49860;SDS011;35761;48.826;9.238;2024-03-22T06:53:33;28.38;;;11.35;;
49860;SDS011;35761;48.826;9.238;2024-03-22T06:55:58;28.52;;;11.98;;
49860;SDS011;35761;48.826;9.238;2024-03-22T06:58:24;22.27;;;11.13;;
49860;SDS011;35761;48.826;9.238;2024-03-22T07:00:50;18.50;;;11.23;;
49860;SDS011;35761;48.826;9.238;2024-03-22T07:03:15;17.48;;;11.38;;
49860;SDS011;35761;48.826;9.238;2024-03-22T07:05:42;27.85;;;12.75;;
49860;SDS011;35761;48.826;9.238;2024-03-22T07:08:08;23.30;;;14.25;;
49860;SDS011;35761;48.826;9.238;2024-03-22T07:10:34;18.05;;;12.35;;
49860;SDS011;35761;48.826;9.238;2024-03-22T07:13:00;29.60;;;11.57;;
49860;SDS011;35761;48.826;9.238;2024-03-22T07:15:26;17.90;;;11.10;;
49860;SDS011;35761;48.826;9.238;2024-03-22T07:17:51;18.30;;;9.55;;
49860;SDS011;35761;48.826;9.238;2024-03-22T07:20:17;31.02;;;18.45;;
49860;SDS011;35761;48.826;9.238;2024-03-22T07:22:43;22.60;;;12.35;;
49860;SDS011;35761;48.826;9.238;2024-03-22T07:25:09;13.98;;;9.73;;
49860;SDS011;35761;48.826;9.238;2024-03-22T07:27:35;16.55;;;10.38;;
49860;SDS011;35761;48.826;9.238;2024-03-22T07:30:01;20.50;;;9.35;;
49860;SDS011;35761;48.826;9.238;2024-03-22T07:32:27;18.20;;;9.82;;
49860;SDS011;35761;48.826;9.238;2024-03-22T07:34:53;16.00;;;9.00;;
49860;SDS011;35761;48.826;9.238;2024-03-22T07:37:19;19.52;;;9.57;;
49860;SDS011;35761;48.826;9.238;2024-03-22T07:39:45;16.67;;;9.13;;
49860;SDS011;35761;48.826;9.238;2024-03-22T07:42:11;18.40;;;10.40;;
49860;SDS011;35761;48.826;9.238;2024-03-22T07:44:36;12.50;;;8.80;;
49860;SDS011;35761;48.826;9.238;2024-03-22T07:47:02;16.67;;;9.30;;
49860;SDS011;35761;48.826;9.238;2024-03-22T07:49:28;23.30;;;9.15;;
49860;SDS011;35761;48.826;9.238;2024-03-22T07:51:53;19.73;;;9.80;;
49860;SDS011;35761;48.826;9.238;2024-03-22T07:54:19;15.48;;;10.30;;
49860;SDS011;35761;48.826;9.238;2024-03-22T07:56:45;15.25;;;9.30;;
49860;SDS011;35761;48.826;9.238;2024-03-22T07:59:11;14.85;;;9.10;;
49860;SDS011;35761;48.826;9.238;2024-03-22T08:01:37;19.05;;;10.90;;
49860;SDS011;35761;48.826;9.238;2024-03-22T08:04:02;17.90;;;10.77;;
49860;SDS011;35761;48.826;9.238;2024-03-22T08:06:28;16.55;;;9.73;;
49860;SDS011;35761;48.826;9.238;2024-03-22T08:08:53;16.02;;;9.30;;
49860;SDS011;35761;48.826;9.238;2024-03-22T08:11:19;18.63;;;9.45;;
49860;SDS011;35761;48.826;9.238;2024-03-22T08:13:45;15.45;;;9.20;;
49860;SDS011;35761;48.826;9.238;2024-03-22T08:16:11;16.10;;;9.13;;
49860;SDS011;35761;48.826;9.238;2024-03-22T08:18:37;21.70;;;8.88;;
49860;SDS011;35761;48.826;9.238;2024-03-22T08:21:02;13.40;;;9.15;;
49860;SDS011;35761;48.826;9.238;2024-03-22T08:23:28;15.38;;;8.52;;
49860;SDS011;35761;48.826;9.238;2024-03-22T08:25:53;18.00;;;9.43;;
49860;SDS011;35761;48.826;9.238;2024-03-22T08:28:19;15.85;;;9.45;;
49860;SDS011;35761;48.826;9.238;2024-03-22T08:30:45;18.33;;;9.10;;
49860;SDS011;35761;48.826;9.238;2024-03-22T08:33:10;15.45;;;8.30;;
49860;SDS011;35761;48.826;9.238;2024-03-22T08:35:37;15.75;;;8.32;;
49860;SDS011;35761;48.826;9.238;2024-03-22T08:38:02;14.70;;;8.63;;
49860;SDS011;35761;48.826;9.238;2024-03-22T08:40:29;18.05;;;8.55;;
49860;SDS011;35761;48.826;9.238;2024-03-22T08:42:55;18.38;;;8.75;;
49860;SDS011;35761;48.826;9.238;2024-03-22T08:45:20;16.10;;;8.80;;
49860;SDS011;35761;48.826;9.238;2024-03-22T08:47:46;12.73;;;8.48;;
49860;SDS011;35761;48.826;9.238;2024-03-22T08:50:11;15.82;;;8.25;;
49860;SDS011;35761;48.826;9.238;2024-03-22T08:52:37;15.27;;;8.57;;
49860;SDS011;35761;48.826;9.238;2024-03-22T08:55:03;36.45;;;21.58;;
49860;SDS011;35761;48.826;9.238;2024-03-22T08:57:31;27.10;;;17.17;;
49860;SDS011;35761;48.826;9.238;2024-03-22T08:59:57;18.02;;;9.95;;
49860;SDS011;35761;48.826;9.238;2024-03-22T09:02:22;12.77;;;8.80;;
49860;SDS011;35761;48.826;9.238;2024-03-22T09:04:48;13.32;;;8.15;;
49860;SDS011;35761;48.826;9.238;2024-03-22T09:07:13;12.45;;;7.78;;
49860;SDS011;35761;48.826;9.238;2024-03-22T09:09:39;14.63;;;7.75;;
49860;SDS011;35761;48.826;9.238;2024-03-22T09:12:04;18.83;;;7.68;;
49860;SDS011;35761;48.826;9.238;2024-03-22T09:14:30;15.00;;;8.45;;
49860;SDS011;35761;48.826;9.238;2024-03-22T09:16:55;12.25;;;7.50;;
49860;SDS011;35761;48.826;9.238;2024-03-22T09:19:21;12.75;;;8.02;;
49860;SDS011;35761;48.826;9.238;2024-03-22T09:21:46;18.08;;;8.15;;
49860;SDS011;35761;48.826;9.238;2024-03-22T09:24:12;14.63;;;8.00;;
49860;SDS011;35761;48.826;9.238;2024-03-22T09:26:37;14.15;;;7.50;;
49860;SDS011;35761;48.826;9.238;2024-03-22T09:29:03;16.52;;;7.95;;
49860;SDS011;35761;48.826;9.238;2024-03-22T09:31:29;14.90;;;7.40;;
49860;SDS011;35761;48.826;9.238;2024-03-22T09:33:56;14.27;;;7.13;;
49860;SDS011;35761;48.826;9.238;2024-03-22T09:36:24;12.13;;;7.30;;
49860;SDS011;35761;48.826;9.238;2024-03-22T09:38:50;14.05;;;7.30;;
49860;SDS011;35761;48.826;9.238;2024-03-22T09:41:18;13.25;;;7.28;;
49860;SDS011;35761;48.826;9.238;2024-03-22T09:43:49;14.77;;;7.15;;
49860;SDS011;35761;48.826;9.238;2024-03-22T09:46:19;14.77;;;7.30;;
49860;SDS011;35761;48.826;9.238;2024-03-22T09:48:47;12.77;;;6.57;;
49860;SDS011;35761;48.826;9.238;2024-03-22T09:51:17;17.33;;;6.95;;
49860;SDS011;35761;48.826;9.238;2024-03-22T09:53:45;13.38;;;7.25;;
49860;SDS011;35761;48.826;9.238;2024-03-22T09:56:14;12.60;;;6.72;;
49860;SDS011;35761;48.826;9.238;2024-03-22T09:58:43;11.73;;;6.47;;
49860;SDS011;35761;48.826;9.238;2024-03-22T10:01:09;14.43;;;6.60;;
49860;SDS011;35761;48.826;9.238;2024-03-22T10:03:36;15.85;;;7.25;;
49860;SDS011;35761;48.826;9.238;2024-03-22T10:06:05;15.30;;;7.38;;
49860;SDS011;35761;48.826;9.238;2024-03-22T10:08:31;14.82;;;6.57;;
49860;SDS011;35761;48.826;9.238;2024-03-22T10:10:57;17.25;;;6.85;;
49860;SDS011;35761;48.826;9.238;2024-03-22T10:13:43;9.70;;;6.88;;
49860;SDS011;35761;48.826;9.238;2024-03-22T10:16:11;13.50;;;6.25;;
49860;SDS011;35761;48.826;9.238;2024-03-22T10:18:37;10.35;;;6.28;;
49860;SDS011;35761;48.826;9.238;2024-03-22T10:21:03;11.10;;;6.70;;
49860;SDS011;35761;48.826;9.238;2024-03-22T10:23:29;13.00;;;6.90;;
49860;SDS011;35761;48.826;9.238;2024-03-22T10:25:56;13.45;;;6.60;;
49860;SDS011;35761;48.826;9.238;2024-03-22T10:28:23;15.85;;;7.20;;
49860;SDS011;35761;48.826;9.238;2024-03-22T10:30:50;9.63;;;6.53;;
49860;SDS011;35761;48.826;9.238;2024-03-22T10:33:16;12.55;;;5.72;;
49860;SDS011;35761;48.826;9.238;2024-03-22T10:35:44;10.77;;;7.20;;
49860;SDS011;35761;48.826;9.238;2024-03-22T10:38:10;14.63;;;6.10;;
49860;SDS011;35761;48.826;9.238;2024-03-22T10:40:38;12.52;;;6.43;;
49860;SDS011;35761;48.826;9.238;2024-03-22T10:43:05;9.43;;;5.85;;
49860;SDS011;35761;48.826;9.238;2024-03-22T10:45:31;10.57;;;6.22;;
49860;SDS011;35761;48.826;9.238;2024-03-22T10:47:56;11.90;;;6.05;;
49860;SDS011;35761;48.826;9.238;2024-03-22T10:50:22;17.85;;;8.20;;
49860;SDS011;35761;48.826;9.238;2024-03-22T10:52:52;12.93;;;6.93;;
49860;SDS011;35761;48.826;9.238;2024-03-22T10:55:32;8.80;;;6.32;;
49860;SDS011;35761;48.826;9.238;2024-03-22T10:57:58;11.10;;;6.95;;
49860;SDS011;35761;48.826;9.238;2024-03-22T11:00:30;11.07;;;6.18;;
49860;SDS011;35761;48.826;9.238;2024-03-22T11:02:57;13.82;;;5.82;;
49860;SDS011;35761;48.826;9.238;2024-03-22T11:05:22;13.65;;;6.45;;
49860;SDS011;35761;48.826;9.238;2024-03-22T11:07:58;15.68;;;6.22;;
49860;SDS011;35761;48.826;9.238;2024-03-22T11:10:35;10.55;;;6.03;;
49860;SDS011;35761;48.826;9.238;2024-03-22T11:13:02;12.52;;;5.68;;
49860;SDS011;35761;48.826;9.238;2024-03-22T11:15:32;9.05;;;5.70;;
49860;SDS011;35761;48.826;9.238;2024-03-22T11:17:58;12.30;;;6.13;;
49860;SDS011;35761;48.826;9.238;2024-03-22T11:20:24;11.45;;;5.07;;
49860;SDS011;35761;48.826;9.238;2024-03-22T11:22:51;16.90;;;5.40;;
49860;SDS011;35761;48.826;9.238;2024-03-22T11:25:17;8.10;;;4.78;;
49860;SDS011;35761;48.826;9.238;2024-03-22T11:27:43;13.13;;;7.63;;
49860;SDS011;35761;48.826;9.238;2024-03-22T11:30:08;7.15;;;4.47;;
49860;SDS011;35761;48.826;9.238;2024-03-22T11:32:35;7.60;;;3.90;;
49860;SDS011;35761;48.826;9.238;2024-03-22T11:35:12;9.38;;;3.75;;
49860;SDS011;35761;48.826;9.238;2024-03-22T11:37:41;7.35;;;3.95;;
49860;SDS011;35761;48.826;9.238;2024-03-22T11:40:10;6.70;;;3.67;;
49860;SDS011;35761;48.826;9.238;2024-03-22T11:42:37;5.18;;;3.38;;
49860;SDS011;35761;48.826;9.238;2024-03-22T11:45:03;10.88;;;3.88;;
49860;SDS011;35761;48.826;9.238;2024-03-22T11:47:30;6.95;;;3.92;;
49860;SDS011;35761;48.826;9.238;2024-03-22T11:49:55;6.90;;;3.80;;
49860;SDS011;35761;48.826;9.238;2024-03-22T11:52:27;6.15;;;3.45;;
49860;SDS011;35761;48.826;9.238;2024-03-22T11:54:53;9.20;;;4.25;;
49860;SDS011;35761;48.826;9.238;2024-03-22T11:57:22;8.73;;;4.07;;
49860;SDS011;35761;48.826;9.238;2024-03-22T11:59:48;6.88;;;3.60;;
49860;SDS011;35761;48.826;9.238;2024-03-22T12:02:14;6.75;;;3.53;;
49860;SDS011;35761;48.826;9.238;2024-03-22T12:04:40;8.57;;;4.30;;
49860;SDS011;35761;48.826;9.238;2024-03-22T12:07:15;9.93;;;3.40;;
49860;SDS011;35761;48.826;9.238;2024-03-22T12:09:42;8.20;;;3.72;;
49860;SDS011;35761;48.826;9.238;2024-03-22T12:12:08;7.25;;;3.75;;
49860;SDS011;35761;48.826;9.238;2024-03-22T12:14:34;7.40;;;4.05;;
49860;SDS011;35761;48.826;9.238;2024-03-22T12:17:01;7.00;;;3.00;;
49860;SDS011;35761;48.826;9.238;2024-03-22T12:19:27;9.85;;;3.78;;
49860;SDS011;35761;48.826;9.238;2024-03-22T12:21:53;6.63;;;3.50;;
49860;SDS011;35761;48.826;9.238;2024-03-22T12:24:19;8.18;;;3.28;;
49860;SDS011;35761;48.826;9.238;2024-03-22T12:26:45;9.30;;;3.53;;
49860;SDS011;35761;48.826;9.238;2024-03-22T12:29:12;4.72;;;3.22;;
49860;SDS011;35761;48.826;9.238;2024-03-22T12:31:38;10.82;;;3.45;;
49860;SDS011;35761;48.826;9.238;2024-03-22T12:34:04;10.75;;;3.28;;
49860;SDS011;35761;48.826;9.238;2024-03-22T12:36:30;8.15;;;3.45;;
49860;SDS011;35761;48.826;9.238;2024-03-22T12:38:55;5.90;;;2.58;;
49860;SDS011;35761;48.826;9.238;2024-03-22T12:41:21;6.28;;;3.10;;
49860;SDS011;35761;48.826;9.238;2024-03-22T12:43:47;8.02;;;3.05;;
49860;SDS011;35761;48.826;9.238;2024-03-22T12:46:12;10.85;;;3.30;;
49860;SDS011;35761;48.826;9.238;2024-03-22T12:48:38;6.20;;;3.03;;
49860;SDS011;35761;48.826;9.238;2024-03-22T12:51:03;7.43;;;2.92;;
49860;SDS011;35761;48.826;9.238;2024-03-22T12:53:29;5.88;;;3.05;;
49860;SDS011;35761;48.826;9.238;2024-03-22T12:55:54;8.52;;;2.80;;
49860;SDS011;35761;48.826;9.238;2024-03-22T12:58:20;7.75;;;3.40;;
49860;SDS011;35761;48.826;9.238;2024-03-22T13:00:46;6.07;;;4.28;;
49860;SDS011;35761;48.826;9.238;2024-03-22T13:03:11;7.90;;;4.07;;
49860;SDS011;35761;48.826;9.238;2024-03-22T13:05:38;11.75;;;3.70;;
49860;SDS011;35761;48.826;9.238;2024-03-22T13:08:03;9.18;;;3.78;;
49860;SDS011;35761;48.826;9.238;2024-03-22T13:10:29;18.73;;;3.35;;
49860;SDS011;35761;48.826;9.238;2024-03-22T13:12:55;5.50;;;3.47;;
49860;SDS011;35761;48.826;9.238;2024-03-22T13:15:20;9.93;;;3.53;;
49860;SDS011;35761;48.826;9.238;2024-03-22T13:17:46;5.20;;;3.00;;
49860;SDS011;35761;48.826;9.238;2024-03-22T13:20:11;7.38;;;3.50;;
49860;SDS011;35761;48.826;9.238;2024-03-22T13:22:40;8.52;;;4.10;;
49860;SDS011;35761;48.826;9.238;2024-03-22T13:25:06;21.55;;;3.88;;
49860;SDS011;35761;48.826;9.238;2024-03-22T13:27:33;11.00;;;3.78;;
49860;SDS011;35761;48.826;9.238;2024-03-22T13:29:59;10.77;;;3.15;;
49860;SDS011;35761;48.826;9.238;2024-03-22T13:32:25;8.40;;;3.30;;
49860;SDS011;35761;48.826;9.238;2024-03-22T13:34:51;5.40;;;2.75;;
49860;SDS011;35761;48.826;9.238;2024-03-22T13:37:16;8.93;;;3.30;;
49860;SDS011;35761;48.826;9.238;2024-03-22T13:39:42;13.27;;;2.70;;
49860;SDS011;35761;48.826;9.238;2024-03-22T13:42:07;6.18;;;3.20;;
49860;SDS011;35761;48.826;9.238;2024-03-22T13:44:34;11.38;;;3.15;;
49860;SDS011;35761;48.826;9.238;2024-03-22T13:47:00;7.72;;;3.45;;
49860;SDS011;35761;48.826;9.238;2024-03-22T13:49:25;7.60;;;3.47;;
49860;SDS011;35761;48.826;9.238;2024-03-22T13:51:51;5.57;;;2.60;;
49860;SDS011;35761;48.826;9.238;2024-03-22T13:54:16;8.18;;;3.00;;
49860;SDS011;35761;48.826;9.238;2024-03-22T13:56:42;8.05;;;3.38;;
49860;SDS011;35761;48.826;9.238;2024-03-22T13:59:07;6.22;;;3.38;;
49860;SDS011;35761;48.826;9.238;2024-03-22T14:01:36;6.30;;;2.88;;
49860;SDS011;35761;48.826;9.238;2024-03-22T14:04:05;7.28;;;3.00;;
49860;SDS011;35761;48.826;9.238;2024-03-22T14:06:31;10.57;;;3.17;;
49860;SDS011;35761;48.826;9.238;2024-03-22T14:08:57;6.40;;;3.08;;
49860;SDS011;35761;48.826;9.238;2024-03-22T14:11:29;8.63;;;3.10;;
49860;SDS011;35761;48.826;9.238;2024-03-22T14:13:56;7.53;;;3.42;;
49860;SDS011;35761;48.826;9.238;2024-03-22T14:16:24;9.43;;;3.05;;
49860;SDS011;35761;48.826;9.238;2024-03-22T14:18:50;6.93;;;2.95;;
49860;SDS011;35761;48.826;9.238;2024-03-22T14:21:18;8.25;;;2.88;;
49860;SDS011;35761;48.826;9.238;2024-03-22T14:23:48;5.85;;;2.80;;